Time,TemperatureF,DewpointF,PressureIn,WindDirection,WindDirectionDegrees,WindSpeedMPH,WindSpeedGustMPH,Humidity,HourlyPrecipIn,Conditions,Clouds,dailyrainin,SoftwareType,DateUTC
2013-02-01 00:00:00,15.4,12.0,29.86,West,268,4.0,8.0,86,0.00,,,0.00,meteohub,2013-02-01 05:00:00,
2013-02-01 00:01:00,15.4,12.0,29.86,West,281,2.0,7.0,86,0.00,,,0.00,meteohub,2013-02-01 05:01:00,
2013-02-01 00:02:00,15.4,12.0,29.86,West,271,7.0,7.0,86,0.00,,,0.00,meteohub,2013-02-01 05:02:00,
2013-02-01 00:03:00,15.4,12.0,29.86,WSW,255,6.0,7.0,86,0.00,,,0.00,meteohub,2013-02-01 05:03:00,
2013-02-01 00:08:00,15.6,12.2,29.86,WNW,289,6.0,9.0,86,0.00,,,0.00,meteohub,2013-02-01 05:08:00,
2013-02-01 00:13:00,15.4,12.0,29.86,WNW,300,4.0,9.0,86,0.00,,,0.00,meteohub,2013-02-01 05:13:00,
2013-02-01 00:18:00,15.4,12.2,29.87,SW,224,1.0,9.0,87,0.00,,,0.00,meteohub,2013-02-01 05:18:00,
2013-02-01 00:23:00,15.4,12.2,29.86,WNW,295,2.0,9.0,87,0.00,,,0.00,meteohub,2013-02-01 05:23:00,
2013-02-01 00:28:00,15.4,12.2,29.87,West,268,4.0,9.0,87,0.00,,,0.00,meteohub,2013-02-01 05:28:00,
2013-02-01 00:33:00,15.4,12.0,29.87,West,268,3.0,10.0,86,0.00,,,0.00,meteohub,2013-02-01 05:33:00,
2013-02-01 00:38:00,15.4,12.0,29.87,West,262,5.0,12.0,86,0.00,,,0.00,meteohub,2013-02-01 05:38:00,
2013-02-01 00:43:00,15.4,12.0,29.87,WNW,285,5.0,12.0,86,0.00,,,0.00,meteohub,2013-02-01 05:43:00,
2013-02-01 00:48:00,15.4,12.0,29.87,WNW,283,4.0,12.0,86,0.00,,,0.00,meteohub,2013-02-01 05:48:00,
2013-02-01 00:53:00,15.4,11.7,29.87,NW,323,8.0,11.0,85,0.00,,,0.00,meteohub,2013-02-01 05:53:00,
2013-02-01 00:58:00,15.4,11.7,29.88,SW,227,4.0,8.0,85,0.00,,,0.00,meteohub,2013-02-01 05:58:00,
2013-02-01 01:03:00,15.4,11.7,29.88,NNW,342,5.0,8.0,85,0.00,,,0.00,meteohub,2013-02-01 06:03:00,
2013-02-01 01:08:00,15.4,11.7,29.88,SW,231,3.0,8.0,85,0.00,,,0.00,meteohub,2013-02-01 06:08:00,
2013-02-01 01:13:00,15.4,11.5,29.88,SW,233,3.0,10.0,84,0.00,,,0.00,meteohub,2013-02-01 06:13:00,
2013-02-01 01:18:00,15.4,11.5,29.88,West,271,1.0,10.0,84,0.00,,,0.00,meteohub,2013-02-01 06:18:00,
2013-02-01 01:23:00,15.4,11.5,29.88,WNW,299,4.0,8.0,84,0.00,,,0.00,meteohub,2013-02-01 06:23:00,
2013-02-01 01:28:00,15.4,11.1,29.88,West,265,2.0,11.0,83,0.00,,,0.00,meteohub,2013-02-01 06:28:00,
2013-02-01 01:33:00,15.4,11.1,29.88,WNW,289,2.0,11.0,83,0.00,,,0.00,meteohub,2013-02-01 06:33:00,
2013-02-01 01:38:00,15.4,10.9,29.88,West,265,3.0,11.0,82,0.00,,,0.00,meteohub,2013-02-01 06:38:00,
2013-02-01 01:43:00,15.6,11.3,29.89,West,281,2.0,9.0,83,0.00,,,0.00,meteohub,2013-02-01 06:43:00,
2013-02-01 01:48:00,15.6,11.7,29.89,WSW,242,1.0,9.0,84,0.00,,,0.00,meteohub,2013-02-01 06:48:00,
2013-02-01 01:53:00,15.6,11.7,29.89,West,277,2.0,9.0,84,0.00,,,0.00,meteohub,2013-02-01 06:53:00,
2013-02-01 01:58:00,15.6,11.3,29.89,West,271,3.0,9.0,83,0.00,,,0.00,meteohub,2013-02-01 06:58:00,
2013-02-01 02:03:00,15.6,11.3,29.89,NNW,335,6.0,12.0,83,0.00,,,0.00,meteohub,2013-02-01 07:03:00,
2013-02-01 02:08:00,15.6,11.1,29.90,NNW,344,6.0,12.0,82,0.00,,,0.00,meteohub,2013-02-01 07:08:00,
2013-02-01 02:13:00,15.6,11.1,29.90,SSW,205,4.0,12.0,82,0.00,,,0.00,meteohub,2013-02-01 07:13:00,
2013-02-01 02:18:00,15.6,11.1,29.90,SW,226,6.0,12.0,82,0.00,,,0.00,meteohub,2013-02-01 07:18:00,
2013-02-01 02:23:00,15.6,11.1,29.90,NNW,327,3.0,12.0,82,0.00,,,0.00,meteohub,2013-02-01 07:23:00,
2013-02-01 02:29:00,15.4,10.9,29.91,WNW,283,4.0,12.0,82,0.00,,,0.00,meteohub,2013-02-01 07:29:00,
2013-02-01 02:34:00,15.4,10.6,29.91,WNW,283,4.0,11.0,81,0.00,,,0.00,meteohub,2013-02-01 07:34:00,
2013-02-01 02:39:00,15.4,10.9,29.91,WNW,283,3.0,11.0,82,0.00,,,0.00,meteohub,2013-02-01 07:39:00,
2013-02-01 02:44:00,15.4,10.6,29.91,WNW,285,2.0,11.0,81,0.00,,,0.00,meteohub,2013-02-01 07:44:00,
2013-02-01 02:49:00,15.4,10.9,29.91,West,268,4.0,10.0,82,0.00,,,0.00,meteohub,2013-02-01 07:49:00,
2013-02-01 02:54:00,15.4,10.6,29.92,SW,234,3.0,11.0,81,0.00,,,0.00,meteohub,2013-02-01 07:54:00,
2013-02-01 02:59:00,15.4,10.4,29.92,West,271,5.0,11.0,80,0.00,,,0.00,meteohub,2013-02-01 07:59:00,
2013-02-01 03:04:00,15.4,10.4,29.92,NW,305,8.0,11.0,80,0.00,,,0.00,meteohub,2013-02-01 08:04:00,
2013-02-01 03:09:00,15.3,10.2,29.92,NW,310,4.0,10.0,80,0.00,,,0.00,meteohub,2013-02-01 08:09:00,
2013-02-01 03:14:00,15.3,10.2,29.93,WNW,302,6.0,10.0,80,0.00,,,0.00,meteohub,2013-02-01 08:14:00,
2013-02-01 03:19:00,15.3,10.2,29.93,West,264,3.0,10.0,80,0.00,,,0.00,meteohub,2013-02-01 08:19:00,
2013-02-01 03:24:00,15.3,10.2,29.93,NW,316,5.0,9.0,80,0.00,,,0.00,meteohub,2013-02-01 08:24:00,
2013-02-01 03:29:00,15.3,10.2,29.93,West,266,2.0,9.0,80,0.00,,,0.00,meteohub,2013-02-01 08:29:00,
2013-02-01 03:34:00,15.3,9.9,29.93,WNW,293,2.0,9.0,79,0.00,,,0.00,meteohub,2013-02-01 08:34:00,
2013-02-01 03:39:00,15.3,9.9,29.93,West,279,2.0,8.0,79,0.00,,,0.00,meteohub,2013-02-01 08:39:00,
2013-02-01 03:44:00,15.3,9.9,29.94,SW,216,6.0,8.0,79,0.00,,,0.00,meteohub,2013-02-01 08:44:00,
2013-02-01 03:49:00,15.3,10.2,29.94,NW,308,4.0,10.0,80,0.00,,,0.00,meteohub,2013-02-01 08:49:00,
2013-02-01 03:54:00,15.1,10.6,29.94,North,351,3.0,11.0,82,0.00,,,0.00,meteohub,2013-02-01 08:54:00,
2013-02-01 03:59:00,15.1,10.6,29.94,North,351,1.0,11.0,82,0.00,,,0.00,meteohub,2013-02-01 08:59:00,
2013-02-01 04:04:00,15.1,10.6,29.94,WSW,258,1.0,11.0,82,0.00,,,0.00,meteohub,2013-02-01 09:04:00,
2013-02-01 04:09:00,15.1,10.2,29.94,West,275,2.0,8.0,81,0.00,,,0.00,meteohub,2013-02-01 09:09:00,
2013-02-01 04:14:00,15.1,10.0,29.94,NW,318,4.0,8.0,80,0.00,,,0.00,meteohub,2013-02-01 09:14:00,
2013-02-01 04:19:00,15.1,9.7,29.94,NW,309,5.0,8.0,79,0.00,,,0.00,meteohub,2013-02-01 09:19:00,
2013-02-01 04:24:00,15.1,9.1,29.95,SW,214,2.0,8.0,77,0.00,,,0.00,meteohub,2013-02-01 09:24:00,
2013-02-01 04:29:00,15.1,9.0,29.96,SW,223,3.0,12.0,76,0.00,,,0.00,meteohub,2013-02-01 09:29:00,
2013-02-01 04:34:00,14.9,9.3,29.96,WNW,293,2.0,12.0,78,0.00,,,0.00,meteohub,2013-02-01 09:34:00,
2013-02-01 04:39:00,14.9,9.5,29.96,WSW,258,3.0,12.0,79,0.00,,,0.00,meteohub,2013-02-01 09:39:00,
2013-02-01 04:44:00,14.7,9.1,29.96,WSW,255,7.0,10.0,78,0.00,,,0.00,meteohub,2013-02-01 09:44:00,
2013-02-01 04:49:00,14.9,9.3,29.96,West,275,6.0,9.0,78,0.00,,,0.00,meteohub,2013-02-01 09:49:00,
2013-02-01 04:54:00,14.9,9.3,29.96,NW,313,4.0,7.0,78,0.00,,,0.00,meteohub,2013-02-01 09:54:00,
2013-02-01 04:59:00,14.9,9.3,29.96,West,280,2.0,7.0,78,0.00,,,0.00,meteohub,2013-02-01 09:59:00,
2013-02-01 05:04:00,14.9,9.0,29.97,WSW,250,1.0,7.0,77,0.00,,,0.00,meteohub,2013-02-01 10:04:00,
2013-02-01 05:09:00,14.9,9.3,29.97,WSW,254,2.0,11.0,78,0.00,,,0.00,meteohub,2013-02-01 10:09:00,
2013-02-01 05:14:00,14.7,9.1,29.97,WNW,302,6.0,11.0,78,0.00,,,0.00,meteohub,2013-02-01 10:14:00,
2013-02-01 05:19:00,14.7,9.1,29.97,WNW,293,2.0,11.0,78,0.00,,,0.00,meteohub,2013-02-01 10:19:00,
2013-02-01 05:24:00,14.7,9.1,29.97,WSW,256,4.0,9.0,78,0.00,,,0.00,meteohub,2013-02-01 10:24:00,
2013-02-01 05:29:00,14.7,9.1,29.98,West,259,2.0,8.0,78,0.00,,,0.00,meteohub,2013-02-01 10:29:00,
2013-02-01 05:34:00,14.7,9.3,29.98,WSW,250,1.0,6.0,79,0.00,,,0.00,meteohub,2013-02-01 10:34:00,
2013-02-01 05:39:00,14.5,9.1,29.99,SW,221,2.0,6.0,79,0.00,,,0.00,meteohub,2013-02-01 10:39:00,
2013-02-01 05:44:00,14.5,9.1,29.99,NW,311,4.0,5.0,79,0.00,,,0.00,meteohub,2013-02-01 10:44:00,
2013-02-01 05:50:00,14.7,9.1,29.99,SW,223,1.0,3.0,78,0.00,,,0.00,meteohub,2013-02-01 10:50:00,
2013-02-01 05:55:00,14.7,9.3,29.99,WNW,285,2.0,6.0,79,0.00,,,0.00,meteohub,2013-02-01 10:55:00,
2013-02-01 05:59:00,14.5,10.0,29.99,WSW,246,3.0,6.0,82,0.00,,,0.00,meteohub,2013-02-01 10:59:00,
2013-02-01 06:05:00,14.5,10.6,29.99,West,261,3.0,6.0,84,0.00,,,0.00,meteohub,2013-02-01 11:05:00,
2013-02-01 06:10:00,14.5,10.4,30.00,WSW,244,6.0,6.0,83,0.00,,,0.00,meteohub,2013-02-01 11:10:00,
2013-02-01 06:15:00,14.5,10.4,30.00,NW,311,3.0,9.0,83,0.00,,,0.00,meteohub,2013-02-01 11:15:00,
2013-02-01 06:20:00,14.5,10.0,30.00,NW,321,4.0,9.0,82,0.00,,,0.00,meteohub,2013-02-01 11:20:00,
2013-02-01 06:25:00,14.7,9.3,30.00,WNW,299,6.0,9.0,79,0.00,,,0.00,meteohub,2013-02-01 11:25:00,
2013-02-01 06:30:00,14.7,9.1,30.01,SW,214,3.0,8.0,78,0.00,,,0.00,meteohub,2013-02-01 11:30:00,
2013-02-01 06:35:00,14.7,8.6,30.01,West,277,4.0,9.0,76,0.00,,,0.00,meteohub,2013-02-01 11:35:00,
2013-02-01 06:40:00,14.7,8.8,30.01,WSW,250,2.0,9.0,77,0.00,,,0.00,meteohub,2013-02-01 11:40:00,
2013-02-01 06:45:00,14.7,8.6,30.01,WSW,242,5.0,9.0,76,0.00,,,0.00,meteohub,2013-02-01 11:45:00,
2013-02-01 06:50:00,14.5,9.0,30.02,NW,316,2.0,11.0,78,0.00,,,0.00,meteohub,2013-02-01 11:50:00,
2013-02-01 06:55:00,14.5,9.1,30.02,West,275,1.0,11.0,79,0.00,,,0.00,meteohub,2013-02-01 11:55:00,
2013-02-01 07:00:00,14.5,9.9,30.02,WSW,238,3.0,8.0,81,0.00,,,0.00,meteohub,2013-02-01 12:00:00,
2013-02-01 07:05:00,14.4,9.9,30.03,WNW,289,0.0,8.0,82,0.00,,,0.00,meteohub,2013-02-01 12:05:00,
2013-02-01 07:10:00,14.4,9.9,30.03,SW,224,1.0,8.0,82,0.00,,,0.00,meteohub,2013-02-01 12:10:00,
2013-02-01 07:15:00,14.4,9.9,30.03,NW,307,6.0,6.0,82,0.00,,,0.00,meteohub,2013-02-01 12:15:00,
2013-02-01 07:20:00,14.2,9.7,30.03,WSW,247,3.0,7.0,82,0.00,,,0.00,meteohub,2013-02-01 12:20:00,
2013-02-01 07:25:00,14.2,10.0,30.04,SW,234,3.0,7.0,83,0.00,,,0.00,meteohub,2013-02-01 12:25:00,
2013-02-01 07:30:00,14.2,10.2,30.04,West,265,7.0,7.0,84,0.00,,,0.00,meteohub,2013-02-01 12:30:00,
2013-02-01 07:35:00,14.2,10.6,30.04,West,280,6.0,7.0,85,0.00,,,0.00,meteohub,2013-02-01 12:35:00,
2013-02-01 07:40:00,13.8,10.4,30.05,West,268,3.0,9.0,86,0.00,,,0.00,meteohub,2013-02-01 12:40:00,
2013-02-01 07:45:00,13.8,10.8,30.05,WSW,237,4.0,10.0,87,0.00,,,0.00,meteohub,2013-02-01 12:45:00,
2013-02-01 07:50:00,13.6,10.8,30.05,NW,317,7.0,10.0,88,0.00,,,0.00,meteohub,2013-02-01 12:50:00,
2013-02-01 07:55:00,13.6,11.3,30.05,NW,307,4.0,10.0,90,0.00,,,0.00,meteohub,2013-02-01 12:55:00,
2013-02-01 08:00:00,13.6,11.3,30.05,NNW,330,2.0,10.0,90,0.00,,,0.00,meteohub,2013-02-01 13:00:00,
2013-02-01 08:05:00,13.8,10.9,30.05,West,268,6.0,10.0,88,0.00,,,0.00,meteohub,2013-02-01 13:05:00,
2013-02-01 08:10:00,13.8,10.9,30.06,West,272,2.0,8.0,88,0.00,,,0.00,meteohub,2013-02-01 13:10:00,
2013-02-01 08:15:00,14.0,11.1,30.06,WNW,286,0.0,8.0,88,0.00,,,0.00,meteohub,2013-02-01 13:15:00,
2013-02-01 08:20:00,14.2,10.8,30.06,WSW,258,0.0,8.0,86,0.00,,,0.00,meteohub,2013-02-01 13:20:00,
2013-02-01 08:25:00,14.2,10.9,30.06,West,279,4.0,7.0,87,0.00,,,0.00,meteohub,2013-02-01 13:25:00,
2013-02-01 08:30:00,14.2,10.8,30.07,West,270,3.0,7.0,86,0.00,,,0.00,meteohub,2013-02-01 13:30:00,
2013-02-01 08:35:00,14.2,10.6,30.07,WSW,253,3.0,9.0,85,0.00,,,0.00,meteohub,2013-02-01 13:35:00,
2013-02-01 08:40:00,14.4,10.4,30.07,NNW,343,2.0,9.0,84,0.00,,,0.00,meteohub,2013-02-01 13:40:00,
2013-02-01 08:46:00,14.4,10.4,30.08,NW,320,2.0,9.0,84,0.00,,,0.00,meteohub,2013-02-01 13:46:00,
2013-02-01 08:51:00,14.5,10.4,30.08,WNW,299,6.0,8.0,83,0.00,,,0.00,meteohub,2013-02-01 13:51:00,
2013-02-01 08:56:00,14.5,10.4,30.08,West,265,5.0,9.0,83,0.00,,,0.00,meteohub,2013-02-01 13:56:00,
2013-02-01 09:01:00,14.5,10.6,30.08,WNW,302,2.0,9.0,84,0.00,,,0.00,meteohub,2013-02-01 14:01:00,
2013-02-01 09:06:00,14.7,10.8,30.08,South,184,1.0,7.0,84,0.00,,,0.00,meteohub,2013-02-01 14:06:00,
2013-02-01 09:11:00,14.7,10.8,30.08,WSW,243,5.0,6.0,84,0.00,,,0.00,meteohub,2013-02-01 14:11:00,
2013-02-01 09:16:00,14.7,10.6,30.09,NNW,347,3.0,7.0,83,0.00,,,0.00,meteohub,2013-02-01 14:16:00,
2013-02-01 09:21:00,14.7,10.6,30.09,SW,233,3.0,7.0,83,0.00,,,0.00,meteohub,2013-02-01 14:21:00,
2013-02-01 09:26:00,14.7,10.6,30.09,NNW,345,3.0,7.0,83,0.00,,,0.00,meteohub,2013-02-01 14:26:00,
2013-02-01 09:31:00,14.9,10.8,30.09,South,171,1.0,7.0,83,0.00,,,0.00,meteohub,2013-02-01 14:31:00,
2013-02-01 09:36:00,14.9,10.8,30.09,West,266,2.0,7.0,83,0.00,,,0.00,meteohub,2013-02-01 14:36:00,
2013-02-01 09:41:00,15.1,11.1,30.10,NW,317,2.0,7.0,84,0.00,,,0.00,meteohub,2013-02-01 14:41:00,
2013-02-01 09:46:00,15.1,11.1,30.10,WNW,282,3.0,8.0,84,0.00,,,0.00,meteohub,2013-02-01 14:46:00,
2013-02-01 09:51:00,15.1,11.5,30.10,NW,320,1.0,11.0,85,0.00,,,0.00,meteohub,2013-02-01 14:51:00,
2013-02-01 09:56:00,15.1,11.7,30.10,SW,234,3.0,11.0,86,0.00,,,0.00,meteohub,2013-02-01 14:56:00,
2013-02-01 10:01:00,15.1,11.8,30.10,West,259,2.0,11.0,87,0.00,,,0.00,meteohub,2013-02-01 15:01:00,
2013-02-01 10:06:00,15.3,11.8,30.10,NNW,330,8.0,8.0,86,0.00,,,0.00,meteohub,2013-02-01 15:06:00,
2013-02-01 10:11:00,15.3,11.5,30.11,NNE,29,2.0,8.0,85,0.00,,,0.00,meteohub,2013-02-01 15:11:00,
2013-02-01 10:16:00,15.3,11.5,30.11,WNW,293,5.0,8.0,85,0.00,,,0.00,meteohub,2013-02-01 15:16:00,
2013-02-01 10:21:00,15.3,11.8,30.11,NNW,335,1.0,9.0,86,0.00,,,0.00,meteohub,2013-02-01 15:21:00,
2013-02-01 10:26:00,15.3,12.0,30.11,West,265,5.0,9.0,87,0.00,,,0.00,meteohub,2013-02-01 15:26:00,
2013-02-01 10:31:00,15.3,12.4,30.11,WSW,245,4.0,9.0,88,0.00,,,0.00,meteohub,2013-02-01 15:31:00,
2013-02-01 10:36:00,15.4,12.6,30.11,NNW,330,2.0,9.0,88,0.00,,,0.00,meteohub,2013-02-01 15:36:00,
2013-02-01 10:41:00,15.4,12.2,30.11,WSW,255,3.0,9.0,87,0.00,,,0.00,meteohub,2013-02-01 15:41:00,
2013-02-01 10:46:00,15.6,12.4,30.11,NW,306,2.0,11.0,87,0.00,,,0.00,meteohub,2013-02-01 15:46:00,
2013-02-01 10:51:00,15.6,11.8,30.12,West,261,4.0,11.0,85,0.00,,,0.00,meteohub,2013-02-01 15:51:00,
2013-02-01 10:56:00,15.8,11.5,30.12,WNW,302,3.0,9.0,83,0.00,,,0.00,meteohub,2013-02-01 15:56:00,
2013-02-01 11:01:00,15.8,11.5,30.12,NW,317,5.0,9.0,83,0.00,,,0.00,meteohub,2013-02-01 16:01:00,
2013-02-01 11:06:00,15.8,12.0,30.12,WSW,251,1.0,9.0,85,0.00,,,0.00,meteohub,2013-02-01 16:06:00,
2013-02-01 11:11:00,15.8,11.8,30.12,East,79,0.0,10.0,84,0.00,,,0.00,meteohub,2013-02-01 16:11:00,
2013-02-01 11:16:00,16.0,11.7,30.12,West,265,3.0,10.0,83,0.00,,,0.00,meteohub,2013-02-01 16:16:00,
2013-02-01 11:21:00,16.2,11.7,30.12,West,276,2.0,7.0,82,0.00,,,0.00,meteohub,2013-02-01 16:21:00,
2013-02-01 11:26:00,16.2,11.1,30.12,SSW,202,2.0,7.0,80,0.00,,,0.00,meteohub,2013-02-01 16:26:00,
2013-02-01 11:31:00,16.0,10.9,30.12,North,358,2.0,10.0,80,0.00,,,0.00,meteohub,2013-02-01 16:31:00,
2013-02-01 11:36:00,15.8,11.3,30.12,NNW,343,4.0,10.0,82,0.00,,,0.00,meteohub,2013-02-01 16:36:00,
2013-02-01 11:41:00,15.8,11.8,30.12,WNW,290,5.0,10.0,84,0.00,,,0.00,meteohub,2013-02-01 16:41:00,
2013-02-01 11:46:00,15.6,11.3,30.12,WNW,302,4.0,12.0,83,0.00,,,0.00,meteohub,2013-02-01 16:46:00,
2013-02-01 11:51:00,16.0,11.7,30.12,NNW,333,3.0,12.0,83,0.00,,,0.00,meteohub,2013-02-01 16:51:00,
2013-02-01 11:56:00,16.2,11.7,30.12,NNE,14,2.0,12.0,82,0.00,,,0.00,meteohub,2013-02-01 16:56:00,
2013-02-01 12:01:00,16.5,11.7,30.12,WSW,252,2.0,9.0,81,0.00,,,0.00,meteohub,2013-02-01 17:01:00,
2013-02-01 12:06:00,16.5,11.7,30.12,WSW,250,4.0,7.0,81,0.00,,,0.00,meteohub,2013-02-01 17:06:00,
2013-02-01 12:11:00,16.5,11.1,30.12,SW,222,2.0,6.0,79,0.00,,,0.00,meteohub,2013-02-01 17:11:00,
2013-02-01 12:16:00,16.5,11.5,30.12,WNW,293,3.0,11.0,80,0.00,,,0.00,meteohub,2013-02-01 17:16:00,
2013-02-01 12:21:00,16.5,11.5,30.12,WSW,257,5.0,12.0,80,0.00,,,0.00,meteohub,2013-02-01 17:21:00,
2013-02-01 12:26:00,16.9,11.8,30.12,West,259,3.0,12.0,80,0.00,,,0.00,meteohub,2013-02-01 17:26:00,
2013-02-01 12:31:00,16.7,11.3,30.12,WSW,238,2.0,10.0,79,0.00,,,0.00,meteohub,2013-02-01 17:31:00,
2013-02-01 12:36:00,16.9,11.8,30.12,WNW,299,3.0,9.0,80,0.00,,,0.00,meteohub,2013-02-01 17:36:00,
2013-02-01 12:42:00,16.9,11.5,30.12,WSW,238,2.0,8.0,79,0.00,,,0.00,meteohub,2013-02-01 17:42:00,
2013-02-01 12:47:00,17.1,12.2,30.12,WSW,237,1.0,8.0,81,0.00,,,0.00,meteohub,2013-02-01 17:47:00,
2013-02-01 12:52:00,17.4,12.6,30.12,West,281,1.0,8.0,81,0.00,,,0.00,meteohub,2013-02-01 17:52:00,
2013-02-01 12:57:00,17.6,13.1,30.12,WSW,252,5.0,7.0,82,0.00,,,0.00,meteohub,2013-02-01 17:57:00,
2013-02-01 13:02:00,16.9,12.4,30.12,NW,307,1.0,7.0,82,0.00,,,0.00,meteohub,2013-02-01 18:02:00,
2013-02-01 13:07:00,16.9,12.9,30.12,SSW,210,3.0,11.0,84,0.00,,,0.00,meteohub,2013-02-01 18:07:00,
2013-02-01 13:12:00,16.7,12.4,30.12,WSW,238,2.0,11.0,83,0.00,,,0.00,meteohub,2013-02-01 18:12:00,
2013-02-01 13:17:00,16.9,12.4,30.12,West,268,3.0,7.0,82,0.00,,,0.00,meteohub,2013-02-01 18:17:00,
2013-02-01 13:22:00,16.5,11.7,30.12,East,91,2.0,6.0,81,0.00,,,0.00,meteohub,2013-02-01 18:22:00,
2013-02-01 13:27:00,16.5,10.9,30.12,SW,214,2.0,9.0,78,0.00,,,0.00,meteohub,2013-02-01 18:27:00,
2013-02-01 13:32:00,16.5,10.9,30.12,WSW,252,3.0,10.0,78,0.00,,,0.00,meteohub,2013-02-01 18:32:00,
2013-02-01 13:37:00,16.5,10.2,30.12,NW,308,4.0,10.0,76,0.00,,,0.00,meteohub,2013-02-01 18:37:00,
2013-02-01 13:42:00,16.5,9.7,30.12,WSW,253,2.0,10.0,74,0.00,,,0.00,meteohub,2013-02-01 18:42:00,
2013-02-01 13:47:00,16.7,10.4,30.12,WSW,252,6.0,7.0,76,0.00,,,0.00,meteohub,2013-02-01 18:47:00,
2013-02-01 13:52:00,16.3,10.9,30.12,West,281,2.0,11.0,79,0.00,,,0.00,meteohub,2013-02-01 18:52:00,
2013-02-01 13:57:00,16.0,11.5,30.12,NW,312,3.0,12.0,82,0.00,,,0.00,meteohub,2013-02-01 18:57:00,
2013-02-01 14:02:00,16.0,11.5,30.12,NE,34,3.0,12.0,82,0.00,,,0.00,meteohub,2013-02-01 19:02:00,
2013-02-01 14:07:00,16.2,11.3,30.12,West,268,1.0,12.0,81,0.00,,,0.00,meteohub,2013-02-01 19:07:00,
2013-02-01 14:12:00,16.3,11.3,30.12,ENE,68,1.0,10.0,80,0.00,,,0.00,meteohub,2013-02-01 19:12:00,
2013-02-01 14:17:00,16.3,10.8,30.12,South,190,5.0,10.0,78,0.00,,,0.00,meteohub,2013-02-01 19:17:00,
2013-02-01 14:22:00,16.2,10.6,30.12,WSW,244,4.0,9.0,78,0.00,,,0.00,meteohub,2013-02-01 19:22:00,
2013-02-01 14:27:00,16.2,10.6,30.12,WNW,302,1.0,9.0,78,0.00,,,0.00,meteohub,2013-02-01 19:27:00,
2013-02-01 14:32:00,16.2,10.6,30.12,NW,310,4.0,9.0,78,0.00,,,0.00,meteohub,2013-02-01 19:32:00,
2013-02-01 14:37:00,15.8,10.4,30.12,South,179,1.0,9.0,79,0.00,,,0.00,meteohub,2013-02-01 19:37:00,
2013-02-01 14:42:00,15.8,10.4,30.12,SW,223,2.0,9.0,79,0.00,,,0.00,meteohub,2013-02-01 19:42:00,
2013-02-01 14:47:00,15.6,10.6,30.12,WNW,301,4.0,9.0,80,0.00,,,0.00,meteohub,2013-02-01 19:47:00,
2013-02-01 14:52:00,15.6,11.1,30.12,South,185,2.0,9.0,82,0.00,,,0.00,meteohub,2013-02-01 19:52:00,
2013-02-01 14:57:00,15.8,11.3,30.12,West,260,0.0,9.0,82,0.00,,,0.00,meteohub,2013-02-01 19:57:00,
2013-02-01 15:02:00,16.0,11.5,30.12,South,183,0.0,9.0,82,0.00,,,0.00,meteohub,2013-02-01 20:02:00,
2013-02-01 15:07:00,16.0,11.5,30.12,SSW,203,0.0,6.0,82,0.00,,,0.00,meteohub,2013-02-01 20:07:00,
2013-02-01 15:12:00,16.0,11.7,30.12,West,266,0.0,5.0,83,0.00,,,0.00,meteohub,2013-02-01 20:12:00,
2013-02-01 15:17:00,15.8,11.5,30.12,West,260,2.0,13.0,83,0.00,,,0.00,meteohub,2013-02-01 20:17:00,
2013-02-01 15:22:00,15.4,11.5,30.12,East,92,3.0,13.0,84,0.00,,,0.00,meteohub,2013-02-01 20:22:00,
2013-02-01 15:27:00,15.4,11.5,30.12,SW,233,1.0,13.0,84,0.00,,,0.00,meteohub,2013-02-01 20:27:00,
2013-02-01 15:32:00,15.3,11.1,30.12,SSE,157,1.0,8.0,83,0.00,,,0.00,meteohub,2013-02-01 20:32:00,
2013-02-01 15:37:00,15.4,11.5,30.12,SW,216,1.0,6.0,84,0.00,,,0.00,meteohub,2013-02-01 20:37:00,
2013-02-01 15:42:00,15.4,11.1,30.12,NNE,17,1.0,5.0,83,0.00,,,0.00,meteohub,2013-02-01 20:42:00,
2013-02-01 15:47:00,15.4,10.6,30.12,SSW,205,2.0,5.0,81,0.00,,,0.00,meteohub,2013-02-01 20:47:00,
2013-02-01 15:52:00,15.3,10.2,30.12,SW,235,5.0,6.0,80,0.00,,,0.00,meteohub,2013-02-01 20:52:00,
2013-02-01 15:57:00,15.3,9.7,30.12,South,182,6.0,6.0,78,0.00,,,0.00,meteohub,2013-02-01 20:57:00,
2013-02-01 16:02:00,15.3,9.3,30.12,SSW,195,0.0,9.0,77,0.00,,,0.00,meteohub,2013-02-01 21:02:00,
2013-02-01 16:07:00,15.3,9.3,30.12,SE,129,2.0,9.0,77,0.00,,,0.00,meteohub,2013-02-01 21:07:00,
2013-02-01 16:12:00,15.4,9.5,30.13,South,189,2.0,9.0,77,0.00,,,0.00,meteohub,2013-02-01 21:12:00,
2013-02-01 16:17:00,15.4,9.0,30.12,NNE,27,0.0,5.0,75,0.00,,,0.00,meteohub,2013-02-01 21:17:00,
2013-02-01 16:22:00,15.3,9.1,30.12,NE,36,1.0,4.0,76,0.00,,,0.00,meteohub,2013-02-01 21:22:00,
2013-02-01 16:27:00,15.1,8.2,30.13,SSW,193,6.0,6.0,74,0.00,,,0.00,meteohub,2013-02-01 21:27:00,
2013-02-01 16:32:00,14.9,7.9,30.13,NE,53,1.0,9.0,73,0.00,,,0.00,meteohub,2013-02-01 21:32:00,
2013-02-01 16:37:00,14.7,7.3,30.12,SW,230,1.0,9.0,72,0.00,,,0.00,meteohub,2013-02-01 21:37:00,
2013-02-01 16:42:00,14.7,7.7,30.12,SW,228,4.0,9.0,73,0.00,,,0.00,meteohub,2013-02-01 21:42:00,
2013-02-01 16:47:00,14.5,7.5,30.12,ENE,70,1.0,8.0,73,0.00,,,0.00,meteohub,2013-02-01 21:47:00,
2013-02-01 16:52:00,14.4,7.9,30.13,SE,136,1.0,9.0,75,0.00,,,0.00,meteohub,2013-02-01 21:52:00,
2013-02-01 16:57:00,14.4,8.2,30.12,West,260,2.0,9.0,76,0.00,,,0.00,meteohub,2013-02-01 21:57:00,
2013-02-01 17:02:00,14.4,8.8,30.12,SSE,155,2.0,9.0,78,0.00,,,0.00,meteohub,2013-02-01 22:02:00,
2013-02-01 17:07:00,14.4,9.3,30.12,South,179,1.0,5.0,80,0.00,,,0.00,meteohub,2013-02-01 22:07:00,
2013-02-01 17:12:00,14.4,9.0,30.12,SE,136,1.0,5.0,79,0.00,,,0.00,meteohub,2013-02-01 22:12:00,
2013-02-01 17:17:00,14.0,8.4,30.12,SE,130,2.0,6.0,78,0.00,,,0.00,meteohub,2013-02-01 22:17:00,
2013-02-01 17:22:00,13.8,8.8,30.12,SW,223,0.0,6.0,80,0.00,,,0.00,meteohub,2013-02-01 22:22:00,
2013-02-01 17:27:00,13.6,8.6,30.13,NE,51,1.0,9.0,80,0.00,,,0.00,meteohub,2013-02-01 22:27:00,
2013-02-01 17:32:00,13.6,9.0,30.13,NE,56,2.0,9.0,81,0.00,,,0.00,meteohub,2013-02-01 22:32:00,
2013-02-01 17:37:00,13.6,9.0,30.13,SE,143,0.0,7.0,81,0.00,,,0.00,meteohub,2013-02-01 22:37:00,
2013-02-01 17:42:00,13.5,9.0,30.13,SSW,193,2.0,7.0,82,0.00,,,0.00,meteohub,2013-02-01 22:42:00,
2013-02-01 17:47:00,13.3,8.6,30.12,East,100,2.0,3.0,81,0.00,,,0.00,meteohub,2013-02-01 22:47:00,
2013-02-01 17:52:00,13.3,8.1,30.13,SSE,152,1.0,6.0,79,0.00,,,0.00,meteohub,2013-02-01 22:52:00,
2013-02-01 17:57:00,13.3,7.2,30.13,SSE,148,1.0,6.0,76,0.00,,,0.00,meteohub,2013-02-01 22:57:00,
2013-02-01 18:02:00,13.3,7.2,30.13,SE,134,1.0,6.0,76,0.00,,,0.00,meteohub,2013-02-01 23:02:00,
2013-02-01 18:07:00,13.3,7.3,30.13,NE,44,1.0,6.0,77,0.00,,,0.00,meteohub,2013-02-01 23:07:00,
2013-02-01 18:12:00,13.1,6.6,30.13,East,100,3.0,6.0,75,0.00,,,0.00,meteohub,2013-02-01 23:12:00,
2013-02-01 18:17:00,12.7,6.6,30.13,SSE,155,1.0,5.0,76,0.00,,,0.00,meteohub,2013-02-01 23:17:00,
2013-02-01 18:22:00,12.9,7.3,30.13,ESE,106,1.0,5.0,78,0.00,,,0.00,meteohub,2013-02-01 23:22:00,
2013-02-01 18:27:00,12.7,7.5,30.13,ENE,67,1.0,5.0,79,0.00,,,0.00,meteohub,2013-02-01 23:27:00,
2013-02-01 18:32:00,12.7,8.1,30.13,SE,127,0.0,4.0,81,0.00,,,0.00,meteohub,2013-02-01 23:32:00,
2013-02-01 18:37:00,12.6,8.1,30.13,East,100,1.0,4.0,82,0.00,,,0.00,meteohub,2013-02-01 23:37:00,
2013-02-01 18:42:00,12.6,8.6,30.13,SSW,200,0.0,5.0,84,0.00,,,0.00,meteohub,2013-02-01 23:42:00,
2013-02-01 18:47:00,12.6,9.0,30.13,SSE,168,2.0,5.0,85,0.00,,,0.00,meteohub,2013-02-01 23:47:00,
2013-02-01 18:52:00,12.4,8.8,30.13,SSW,195,0.0,5.0,85,0.00,,,0.00,meteohub,2013-02-01 23:52:00,
2013-02-01 18:57:00,12.4,9.0,30.13,NE,51,1.0,5.0,86,0.00,,,0.00,meteohub,2013-02-01 23:57:00,
2013-02-01 19:02:00,12.4,8.8,30.13,SW,223,0.0,5.0,85,0.00,,,0.00,meteohub,2013-02-02 00:02:00,
2013-02-01 19:07:00,12.4,8.8,30.13,SW,219,0.0,5.0,85,0.00,,,0.00,meteohub,2013-02-02 00:07:00,
2013-02-01 19:12:00,12.4,9.0,30.13,SW,231,2.0,3.0,86,0.00,,,0.00,meteohub,2013-02-02 00:12:00,
2013-02-01 19:17:00,12.2,8.8,30.13,West,275,1.0,4.0,86,0.00,,,0.00,meteohub,2013-02-02 00:17:00,
2013-02-01 19:22:00,12.2,8.8,30.13,South,189,0.0,5.0,86,0.00,,,0.00,meteohub,2013-02-02 00:22:00,
2013-02-01 19:27:00,12.0,8.6,30.13,NE,51,1.0,5.0,86,0.00,,,0.00,meteohub,2013-02-02 00:27:00,
2013-02-01 19:32:00,12.0,8.6,30.14,SSW,202,0.0,5.0,86,0.00,,,0.00,meteohub,2013-02-02 00:32:00,
2013-02-01 19:37:00,11.8,8.4,30.14,SSE,155,0.0,5.0,86,0.00,,,0.00,meteohub,2013-02-02 00:37:00,
2013-02-01 19:42:00,11.8,8.4,30.13,SSE,158,2.0,5.0,86,0.00,,,0.00,meteohub,2013-02-02 00:42:00,
2013-02-01 19:47:00,11.7,8.2,30.13,East,99,4.0,5.0,86,0.00,,,0.00,meteohub,2013-02-02 00:47:00,
2013-02-01 19:52:00,11.7,8.2,30.13,NNE,24,1.0,8.0,86,0.00,,,0.00,meteohub,2013-02-02 00:52:00,
2013-02-01 19:57:00,11.5,8.1,30.13,ENE,66,1.0,8.0,86,0.00,,,0.00,meteohub,2013-02-02 00:57:00,
2013-02-01 20:02:00,11.5,8.1,30.13,WSW,246,1.0,8.0,86,0.00,,,0.00,meteohub,2013-02-02 01:02:00,
2013-02-01 20:07:00,11.5,8.4,30.13,WSW,258,1.0,4.0,87,0.00,,,0.00,meteohub,2013-02-02 01:07:00,
2013-02-01 20:12:00,11.5,8.4,30.13,SW,228,1.0,5.0,87,0.00,,,0.00,meteohub,2013-02-02 01:12:00,
2013-02-01 20:17:00,11.5,8.4,30.13,ESE,108,1.0,7.0,87,0.00,,,0.00,meteohub,2013-02-02 01:17:00,
2013-02-01 20:22:00,11.5,8.4,30.13,ESE,109,4.0,7.0,87,0.00,,,0.00,meteohub,2013-02-02 01:22:00,
2013-02-01 20:27:00,11.5,8.4,30.13,SSW,193,0.0,7.0,87,0.00,,,0.00,meteohub,2013-02-02 01:27:00,
2013-02-01 20:32:00,11.3,7.9,30.12,East,93,1.0,6.0,86,0.00,,,0.00,meteohub,2013-02-02 01:32:00,
2013-02-01 20:37:00,11.3,7.9,30.12,SE,131,2.0,6.0,86,0.00,,,0.00,meteohub,2013-02-02 01:37:00,
2013-02-01 20:42:00,11.1,7.7,30.12,ESE,109,2.0,8.0,86,0.00,,,0.00,meteohub,2013-02-02 01:42:00,
2013-02-01 20:47:00,11.1,8.1,30.12,NE,43,2.0,8.0,87,0.00,,,0.00,meteohub,2013-02-02 01:47:00,
2013-02-01 20:52:00,11.3,8.2,30.12,SE,126,4.0,8.0,87,0.00,,,0.00,meteohub,2013-02-02 01:52:00,
2013-02-01 20:57:00,11.1,8.1,30.12,WSW,257,1.0,4.0,87,0.00,,,0.00,meteohub,2013-02-02 01:57:00,
2013-02-01 21:02:00,10.9,7.9,30.12,South,176,1.0,4.0,87,0.00,,,0.00,meteohub,2013-02-02 02:02:00,
2013-02-01 21:07:00,10.9,7.9,30.12,ESE,115,1.0,4.0,87,0.00,,,0.00,meteohub,2013-02-02 02:07:00,
2013-02-01 21:12:00,10.9,7.9,30.12,East,96,1.0,4.0,87,0.00,,,0.00,meteohub,2013-02-02 02:12:00,
2013-02-01 21:17:00,10.9,7.9,30.12,SE,145,0.0,6.0,87,0.00,,,0.00,meteohub,2013-02-02 02:17:00,
2013-02-01 21:22:00,10.9,7.9,30.12,ENE,78,1.0,6.0,87,0.00,,,0.00,meteohub,2013-02-02 02:22:00,
2013-02-01 21:27:00,10.9,7.9,30.11,East,90,2.0,6.0,87,0.00,,,0.00,meteohub,2013-02-02 02:27:00,
2013-02-01 21:32:00,10.9,7.9,30.11,East,93,3.0,6.0,87,0.00,,,0.00,meteohub,2013-02-02 02:32:00,
2013-02-01 21:37:00,10.9,7.9,30.11,ENE,68,0.0,5.0,87,0.00,,,0.00,meteohub,2013-02-02 02:37:00,
2013-02-01 21:42:00,10.9,7.9,30.11,SSE,165,1.0,5.0,87,0.00,,,0.00,meteohub,2013-02-02 02:42:00,
2013-02-01 21:47:00,10.9,7.5,30.11,ESE,120,1.0,6.0,86,0.00,,,0.00,meteohub,2013-02-02 02:47:00,
2013-02-01 21:52:00,10.8,7.2,30.10,East,85,3.0,6.0,85,0.00,,,0.00,meteohub,2013-02-02 02:52:00,
2013-02-01 21:57:00,10.8,7.2,30.11,NE,48,1.0,6.0,85,0.00,,,0.00,meteohub,2013-02-02 02:57:00,
2013-02-01 22:02:00,10.8,7.2,30.10,SW,214,1.0,5.0,85,0.00,,,0.00,meteohub,2013-02-02 03:02:00,
2013-02-01 22:07:00,10.8,7.3,30.10,South,184,1.0,4.0,86,0.00,,,0.00,meteohub,2013-02-02 03:07:00,
2013-02-01 22:12:00,10.8,7.3,30.10,ESE,122,1.0,4.0,86,0.00,,,0.00,meteohub,2013-02-02 03:12:00,
2013-02-01 22:17:00,10.8,7.7,30.10,South,171,2.0,4.0,87,0.00,,,0.00,meteohub,2013-02-02 03:17:00,
2013-02-01 22:22:00,10.8,7.7,30.11,South,190,0.0,4.0,87,0.00,,,0.00,meteohub,2013-02-02 03:22:00,
2013-02-01 22:27:00,10.8,7.7,30.11,ESE,108,1.0,4.0,87,0.00,,,0.00,meteohub,2013-02-02 03:27:00,
2013-02-01 22:32:00,10.8,7.7,30.11,ESE,113,2.0,4.0,87,0.00,,,0.00,meteohub,2013-02-02 03:32:00,
2013-02-01 22:37:00,10.6,7.5,30.11,SSW,201,0.0,4.0,87,0.00,,,0.00,meteohub,2013-02-02 03:37:00,
2013-02-01 22:42:00,10.6,7.5,30.11,ESE,116,0.0,6.0,87,0.00,,,0.00,meteohub,2013-02-02 03:42:00,
2013-02-01 22:47:00,10.8,7.9,30.11,NNW,328,2.0,6.0,88,0.00,,,0.00,meteohub,2013-02-02 03:47:00,
2013-02-01 22:52:00,10.8,7.9,30.11,ENE,57,2.0,6.0,88,0.00,,,0.00,meteohub,2013-02-02 03:52:00,
2013-02-01 22:57:00,10.8,7.9,30.11,WSW,241,0.0,3.0,88,0.00,,,0.00,meteohub,2013-02-02 03:57:00,
2013-02-01 23:02:00,10.8,8.2,30.11,South,186,5.0,5.0,89,0.00,,,0.00,meteohub,2013-02-02 04:02:00,
2013-02-01 23:07:00,10.8,8.2,30.11,NNW,340,2.0,6.0,89,0.00,,,0.00,meteohub,2013-02-02 04:07:00,
2013-02-01 23:12:00,10.8,7.9,30.11,NNW,347,3.0,6.0,88,0.00,,,0.00,meteohub,2013-02-02 04:12:00,
2013-02-01 23:17:00,10.8,7.9,30.11,ENE,73,0.0,6.0,88,0.00,,,0.00,meteohub,2013-02-02 04:17:00,
2013-02-01 23:22:00,10.8,8.2,30.11,NE,41,0.0,5.0,89,0.00,,,0.00,meteohub,2013-02-02 04:22:00,
2013-02-01 23:27:00,10.8,7.9,30.11,WNW,287,0.0,3.0,88,0.00,,,0.00,meteohub,2013-02-02 04:27:00,
2013-02-01 23:32:00,10.8,7.9,30.11,North,354,0.0,2.0,88,0.00,,,0.00,meteohub,2013-02-02 04:32:00,
2013-02-01 23:37:00,10.6,7.7,30.10,East,84,0.0,2.0,88,0.00,,,0.00,meteohub,2013-02-02 04:37:00,
2013-02-01 23:42:00,10.6,7.7,30.10,ENE,64,1.0,3.0,88,0.00,,,0.00,meteohub,2013-02-02 04:42:00,
2013-02-01 23:47:00,10.6,7.5,30.10,NNE,25,0.0,3.0,87,0.00,,,0.00,meteohub,2013-02-02 04:47:00,
2013-02-01 23:52:00,10.4,7.3,30.10,NNE,25,6.0,6.0,87,0.00,,,0.00,meteohub,2013-02-02 04:52:00,
2013-02-01 23:57:00,10.4,7.5,30.10,NNE,14,1.0,6.0,88,0.00,,,0.00,meteohub,2013-02-02 04:57:00,